createdAt,value
2023-03-08T00:00:18.143Z,98955.16
2023-03-08T00:02:46.163Z,98959.50
2023-03-08T00:05:14.154Z,98959.50
2023-03-08T00:07:42.239Z,98956.78
2023-03-08T00:10:12.023Z,98957.59
2023-03-08T00:12:40.085Z,98956.22
2023-03-08T00:15:10.262Z,98946.00
2023-03-08T00:17:38.696Z,98950.34
2023-03-08T00:20:07.240Z,98947.63
2023-03-08T00:22:37.050Z,98941.44
2023-03-08T00:25:05.637Z,98936.03
2023-03-08T00:27:33.556Z,98944.13
2023-03-08T00:30:01.560Z,98937.69
2023-03-08T00:32:31.173Z,98935.81
2023-03-08T00:34:59.090Z,98937.69
2023-03-08T00:37:27.046Z,98933.13
2023-03-08T00:39:55.209Z,98928.78
2023-03-08T00:43:02.589Z,98926.06
2023-03-08T00:45:30.563Z,98925.28
2023-03-08T00:47:59.989Z,98931.47
2023-03-08T00:50:28.027Z,98921.53
2023-03-08T00:52:56.034Z,98931.47
2023-03-08T00:55:24.019Z,98927.97
2023-03-08T00:57:51.971Z,98931.47
2023-03-08T01:00:20.487Z,98920.69
2023-03-08T01:02:48.487Z,98926.06
2023-03-08T01:05:17.988Z,98919.88
2023-03-08T01:07:45.924Z,98912.59
2023-03-08T01:10:13.992Z,98916.16
2023-03-08T01:12:42.027Z,98911.56
2023-03-08T01:15:10.394Z,98913.19
2023-03-08T01:17:38.484Z,98903.22
2023-03-08T01:20:07.629Z,98916.47
2023-03-08T01:22:36.989Z,98903.22
2023-03-08T01:25:05.303Z,98915.66
2023-03-08T01:27:33.288Z,98921.84
2023-03-08T01:30:01.286Z,98916.47
2023-03-08T01:32:29.360Z,98913.75
2023-03-08T01:35:02.173Z,98910.50
2023-03-08T01:37:30.053Z,98915.66
2023-03-08T01:39:59.461Z,98921.84
2023-03-08T01:42:27.758Z,98916.47
2023-03-08T01:44:56.682Z,98916.47
2023-03-08T01:47:25.116Z,98918.34
2023-03-08T01:49:53.927Z,98915.06
2023-03-08T01:52:24.356Z,98916.69
2023-03-08T01:54:53.363Z,98915.88
2023-03-08T01:57:24.721Z,98920.22
2023-03-08T01:59:52.789Z,98921.03
2023-03-08T02:02:22.700Z,98921.28
2023-03-08T02:04:50.590Z,98926.66
2023-03-08T02:07:18.487Z,98922.09
2023-03-08T02:09:46.409Z,98923.16
2023-03-08T02:12:14.536Z,98926.66
2023-03-08T02:14:44.204Z,98921.03
2023-03-08T02:17:12.252Z,98921.28
2023-03-08T02:19:43.808Z,98924.53
2023-03-08T02:22:12.170Z,98922.66
2023-03-08T02:24:41.572Z,98919.38
2023-03-08T02:27:25.895Z,98922.66
2023-03-08T02:29:53.852Z,98913.53
2023-03-08T02:32:21.923Z,98921.63
2023-03-08T02:34:49.923Z,98917.03
2023-03-08T02:37:17.910Z,98920.53
2023-03-08T02:39:47.300Z,98930.50
2023-03-08T02:42:15.493Z,98914.34
2023-03-08T02:44:43.436Z,98924.06
2023-03-08T02:47:11.618Z,98925.94
2023-03-08T02:49:39.652Z,98921.34
2023-03-08T02:52:07.939Z,98923.00
2023-03-08T02:54:35.953Z,98932.13
2023-03-08T02:57:05.563Z,98944.56
2023-03-08T02:59:33.559Z,98931.31
2023-03-08T03:02:01.529Z,98929.44
2023-03-08T03:04:30.793Z,98927.56
2023-03-08T03:06:58.901Z,98930.50
2023-03-08T03:09:26.926Z,98924.06
2023-03-08T03:11:54.870Z,98927.56
2023-03-08T03:14:24.151Z,98923.00
2023-03-08T03:16:52.025Z,98927.56
2023-03-08T03:19:19.990Z,98921.34
2023-03-08T03:21:47.978Z,98924.06
2023-03-08T03:24:16.029Z,98927.81
2023-03-08T03:26:44.004Z,98932.72
2023-03-08T03:29:11.951Z,98927.56
2023-03-08T03:31:41.286Z,98935.41
2023-03-08T03:34:09.481Z,98943.72
2023-03-08T03:36:37.531Z,98938.09
2023-03-08T03:39:05.553Z,98941.63
2023-03-08T03:41:33.679Z,98947.00
2023-03-08T03:44:01.598Z,98946.19
2023-03-08T03:46:29.663Z,98952.66
2023-03-08T03:48:59.366Z,98946.19
2023-03-08T03:51:27.406Z,98953.69
2023-03-08T03:53:55.353Z,98960.75
2023-03-08T03:56:24.429Z,98966.94
2023-03-08T03:58:52.497Z,98959.09
2023-03-08T04:01:22.045Z,98971.50
2023-03-08T04:03:50.269Z,98975.25
2023-03-08T04:06:20.419Z,98974.44
2023-03-08T04:08:48.332Z,98980.66
2023-03-08T04:11:17.503Z,98979.03
2023-03-08T04:13:45.575Z,98983.34
2023-03-08T04:16:13.950Z,98986.03
2023-03-08T04:18:41.924Z,98981.72
2023-03-08T04:21:09.940Z,98984.41
2023-03-08T04:23:39.360Z,98985.22
2023-03-08T04:26:07.622Z,98993.53
2023-03-08T04:28:35.973Z,99000.56
2023-03-08T04:31:13.060Z,98995.19
2023-03-08T04:33:41.060Z,99000.56
2023-03-08T04:36:09.555Z,99001.38
2023-03-08T04:38:39.005Z,99003.28
2023-03-08T04:41:12.016Z,98997.88
2023-03-08T04:43:40.463Z,99007.59
2023-03-08T04:46:08.684Z,99010.28
2023-03-08T04:48:36.698Z,98996.81
2023-03-08T04:51:05.674Z,99004.09
2023-03-08T04:53:33.675Z,99010.28
2023-03-08T04:56:02.946Z,99002.19
2023-03-08T04:58:31.020Z,99000.56
2023-03-08T05:00:59.515Z,98998.94
2023-03-08T05:03:27.613Z,98998.13
2023-03-08T05:05:56.540Z,98997.31
2023-03-08T05:08:24.595Z,98992.13
2023-03-08T05:11:00.263Z,98997.31
2023-03-08T05:13:30.940Z,98986.75
2023-03-08T05:15:58.965Z,98996.72
2023-03-08T05:18:26.943Z,98999.41
2023-03-08T05:20:56.619Z,99003.75
2023-03-08T05:23:27.569Z,99004.81
2023-03-08T05:26:00.984Z,99009.97
2023-03-08T05:28:35.496Z,99010.19
2023-03-08T05:31:05.092Z,99011.00
2023-03-08T05:33:34.829Z,99007.28
2023-03-08T05:36:05.419Z,99008.31
2023-03-08T05:38:35.072Z,99009.16
2023-03-08T05:41:06.380Z,99013.47
2023-03-08T05:43:36.990Z,99015.59
2023-03-08T05:46:07.405Z,99020.47
2023-03-08T05:48:36.999Z,99021.56
2023-03-08T05:51:06.903Z,99032.34
2023-03-08T05:53:35.436Z,99035.03
2023-03-08T05:56:14.092Z,99036.66
2023-03-08T05:58:47.901Z,99040.41
2023-03-08T06:01:19.014Z,99052.81
2023-03-08T06:03:47.028Z,99052.81
2023-03-08T06:06:15.037Z,99059.06
2023-03-08T06:08:43.048Z,99056.34
2023-03-08T06:11:11.090Z,99053.41
2023-03-08T06:13:39.050Z,99059.59
2023-03-08T06:16:08.845Z,99061.50
2023-03-08T06:18:36.918Z,99053.41
2023-03-08T06:21:05.665Z,99054.22
2023-03-08T06:23:33.685Z,99054.47
2023-03-08T06:26:01.700Z,99056.91
2023-03-08T06:28:29.794Z,99054.47
2023-03-08T06:30:58.023Z,99065.84
2023-03-08T06:33:28.424Z,99071.22
2023-03-08T06:35:59.922Z,99068.53
2023-03-08T06:38:29.889Z,99077.19
2023-03-08T06:40:58.444Z,99065.59
2023-03-08T06:43:26.663Z,99062.66
2023-03-08T06:45:54.719Z,99068.06
2023-03-08T06:48:22.776Z,99075.06
2023-03-08T06:50:52.117Z,99080.47
2023-03-08T06:53:20.135Z,99084.56
2023-03-08T06:55:48.125Z,99089.97
2023-03-08T06:58:16.038Z,99091.59
2023-03-08T07:00:44.067Z,99091.38
2023-03-08T07:03:12.388Z,99091.13
2023-03-08T07:05:40.292Z,99095.69
2023-03-08T07:08:09.608Z,99097.34
2023-03-08T07:10:37.517Z,99086.56
2023-03-08T07:13:05.432Z,99094.38
2023-03-08T07:15:33.407Z,99097.94
2023-03-08T07:18:01.339Z,99101.16
2023-03-08T07:20:29.423Z,99103.88
2023-03-08T07:22:57.540Z,99100.38
2023-03-08T07:25:26.858Z,99097.44
2023-03-08T07:27:54.884Z,99103.63
2023-03-08T07:30:23.025Z,99107.16
2023-03-08T07:32:51.251Z,99106.56
2023-03-08T07:35:19.469Z,99105.44
2023-03-08T07:37:47.487Z,99106.47
2023-03-08T07:40:16.333Z,99115.84
2023-03-08T07:42:45.729Z,99113.50
2023-03-08T07:45:13.851Z,99105.66
2023-03-08T07:47:41.948Z,99104.03
2023-03-08T07:50:11.461Z,99099.94
2023-03-08T07:52:39.449Z,99102.00
2023-03-08T07:55:09.733Z,99110.34
2023-03-08T07:57:37.802Z,99105.19
2023-03-08T08:00:08.623Z,99110.81
2023-03-08T08:02:36.563Z,99107.56
2023-03-08T08:05:05.073Z,99112.09
2023-03-08T08:07:33.076Z,99109.91
2023-03-08T08:10:01.131Z,99107.69
2023-03-08T08:12:29.179Z,99103.38
2023-03-08T08:14:57.925Z,99113.06
2023-03-08T08:17:27.230Z,99112.50
2023-03-08T08:19:55.270Z,99115.66
2023-03-08T08:22:23.330Z,99112.38
2023-03-08T08:24:51.270Z,99112.66
2023-03-08T08:27:19.206Z,99118.25
2023-03-08T08:30:06.180Z,99107.47
2023-03-08T08:32:35.954Z,99116.38
2023-03-08T08:35:04.059Z,99108.53
2023-03-08T08:37:32.778Z,99116.38
2023-03-08T08:40:00.805Z,99118.25
2023-03-08T08:42:28.763Z,99119.06
2023-03-08T08:44:56.823Z,99113.44
2023-03-08T08:47:24.725Z,99110.28
2023-03-08T08:49:54.593Z,99116.25
2023-03-08T08:52:22.670Z,99114.69
2023-03-08T08:54:50.739Z,99119.06
2023-03-08T08:57:18.730Z,99113.06
2023-03-08T08:59:47.532Z,99123.84
2023-03-08T09:02:15.763Z,99115.78
2023-03-08T09:04:44.003Z,99120.09
2023-03-08T09:07:13.430Z,99119.28
2023-03-08T09:09:41.361Z,99113.06
2023-03-08T09:12:09.813Z,99113.66
2023-03-08T09:22:20.728Z,99105.00
2023-03-08T09:24:50.168Z,99111.44
2023-03-08T09:27:18.013Z,99114.16
2023-03-08T09:33:36.971Z,99110.63
2023-03-08T09:36:05.270Z,99112.25
2023-03-08T09:38:34.660Z,99107.09
2023-03-08T09:41:09.969Z,99103.59
2023-03-08T09:48:05.264Z,99114.47
2023-03-08T09:50:39.454Z,99109.91
2023-03-08T09:53:21.619Z,99111.28
2023-03-08T09:55:52.640Z,99099.22
2023-03-08T10:09:49.026Z,99114.34
2023-03-08T10:12:22.305Z,99111.66
2023-03-08T10:22:27.909Z,99108.38
2023-03-08T10:24:58.416Z,99110.00
2023-03-08T10:27:28.844Z,99115.38
2023-03-08T10:33:48.393Z,99109.50
2023-03-08T10:36:19.266Z,99104.97
2023-03-08T10:38:57.847Z,99100.75
2023-03-08T10:41:25.928Z,99098.63
2023-03-08T11:07:26.750Z,99077.28
2023-03-08T11:10:06.451Z,99070.00
2023-03-08T11:12:34.532Z,99077.28
2023-03-08T11:22:52.422Z,99063.22
2023-03-08T11:25:30.750Z,99059.47
2023-03-08T11:28:05.193Z,99059.81
2023-03-08T11:30:39.358Z,99046.09
2023-03-08T11:33:32.645Z,99056.38
2023-03-08T11:36:03.694Z,99045.59
2023-03-08T11:38:33.581Z,99041.00
2023-03-08T11:41:05.086Z,99047.22
2023-03-08T11:54:55.783Z,99032.44
2023-03-08T11:57:23.897Z,99035.94
2023-03-08T11:59:52.931Z,99032.19
2023-03-08T12:02:22.040Z,99031.72
2023-03-08T12:05:01.749Z,99016.66
2023-03-08T12:07:32.711Z,99023.69
2023-03-08T12:10:04.177Z,99021.56
2023-03-08T12:12:32.796Z,99029.41
2023-03-08T12:15:03.737Z,99022.69
2023-03-08T12:17:33.448Z,99016.50
2023-03-08T12:20:01.464Z,99015.19
2023-03-08T12:22:35.716Z,99021.16
2023-03-08T12:25:09.815Z,99018.47
2023-03-08T12:27:40.751Z,99019.28
2023-03-08T12:30:15.567Z,99017.97
2023-03-08T12:32:43.841Z,99015.00
2023-03-08T12:35:30.978Z,99015.00
2023-03-08T12:38:02.761Z,99014.78
2023-03-08T12:40:37.968Z,99012.88
2023-03-08T12:43:07.592Z,99013.69
2023-03-08T12:45:35.548Z,99001.28
2023-03-08T12:48:11.049Z,99006.44
2023-03-08T12:50:41.846Z,98999.97
2023-03-08T12:53:23.241Z,99002.44
2023-03-08T12:56:02.917Z,99003.81
2023-03-08T12:58:31.281Z,99003.81
2023-03-08T13:01:00.271Z,99005.44
2023-03-08T13:03:29.972Z,99001.44
2023-03-08T13:05:57.934Z,98988.28
2023-03-08T13:08:32.222Z,98987.22
2023-03-08T13:11:05.574Z,98984.28
2023-03-08T13:13:43.942Z,98978.88
2023-03-08T13:16:24.223Z,98983.47
2023-03-08T13:18:56.780Z,98979.94
2023-03-08T13:21:28.642Z,98977.25
2023-03-08T13:23:59.427Z,98976.44
2023-03-08T13:26:51.250Z,98972.66
2023-03-08T13:29:20.403Z,98965.66
2023-03-08T13:31:48.576Z,98970.19
2023-03-08T13:34:29.560Z,98970.19
2023-03-08T13:36:57.624Z,98971.28
2023-03-08T13:39:26.389Z,98956.16
2023-03-08T13:42:05.652Z,98955.09
2023-03-08T13:44:33.580Z,98955.09
2023-03-08T13:47:03.992Z,98940.78
2023-03-08T13:49:33.057Z,98948.06
2023-03-08T13:52:02.560Z,98943.72
2023-03-08T13:54:33.374Z,98946.41
2023-03-08T13:57:03.952Z,98944.28
2023-03-08T13:59:32.157Z,98941.59
2023-03-08T14:02:00.123Z,98939.97
2023-03-08T14:04:28.728Z,98931.63
2023-03-08T14:06:57.577Z,98935.13
2023-03-08T14:09:25.899Z,98933.25
2023-03-08T14:12:00.800Z,98930.28
2023-03-08T14:14:32.125Z,98925.97
2023-03-08T14:17:00.194Z,98935.69
2023-03-08T14:19:28.994Z,98933.81
2023-03-08T14:21:57.619Z,98922.19
2023-03-08T14:24:26.606Z,98916.22
2023-03-08T14:26:55.976Z,98912.47
2023-03-08T14:29:24.247Z,98911.91
2023-03-08T14:32:02.147Z,98905.19
2023-03-08T14:34:34.881Z,98894.97
2023-03-08T14:37:05.979Z,98902.00
2023-03-08T14:39:34.756Z,98902.25
2023-03-08T14:42:10.527Z,98907.66
2023-03-08T14:44:38.646Z,98901.69
2023-03-08T14:47:12.157Z,98903.81
2023-03-08T14:49:40.412Z,98900.03
2023-03-08T14:52:20.213Z,98897.91
2023-03-08T14:54:48.221Z,98891.72
2023-03-08T14:57:18.542Z,98892.00
2023-03-08T14:59:46.729Z,98892.66
2023-03-08T15:02:16.815Z,98890.00
2023-03-08T15:04:44.846Z,98889.50
2023-03-08T15:07:17.945Z,98887.06
2023-03-08T15:09:45.974Z,98892.72
2023-03-08T15:12:14.040Z,98898.09
2023-03-08T15:14:42.046Z,98895.41
2023-03-08T15:17:09.907Z,98889.25
2023-03-08T15:19:39.300Z,98881.47
2023-03-08T15:22:07.637Z,98895.53
2023-03-08T15:24:35.795Z,98902.88
2023-03-08T15:27:03.797Z,98885.66
2023-03-08T15:29:32.700Z,98893.06
2023-03-08T15:32:00.780Z,98889.34
2023-03-08T15:34:28.883Z,98890.47
2023-03-08T15:36:58.323Z,98893.19
2023-03-08T15:39:26.236Z,98881.84
2023-03-08T15:41:54.651Z,98890.97
2023-03-08T15:44:22.756Z,98887.97
2023-03-08T15:46:52.707Z,98886.56
2023-03-08T15:49:20.969Z,98884.63
2023-03-08T15:51:48.977Z,98883.25
2023-03-08T15:54:18.362Z,98873.78
2023-03-08T15:56:46.308Z,98872.41
2023-03-08T15:59:14.282Z,98882.66
2023-03-08T16:01:42.305Z,98871.28
2023-03-08T16:04:10.361Z,98874.22
2023-03-08T16:06:38.361Z,98870.72
2023-03-08T16:09:06.428Z,98885.31
2023-03-08T16:11:35.864Z,98875.56
2023-03-08T16:14:03.858Z,98875.00
2023-03-08T16:16:44.356Z,98885.25
2023-03-08T16:19:13.108Z,98885.25
2023-03-08T16:21:41.112Z,98886.56
2023-03-08T16:24:09.347Z,98887.88
2023-03-08T16:26:40.011Z,98889.50
2023-03-08T16:29:09.059Z,98886.50
2023-03-08T16:31:38.368Z,98890.50
2023-03-08T16:34:06.663Z,98881.03
2023-03-08T16:36:34.792Z,98883.97
2023-03-08T16:39:02.777Z,98890.22
2023-03-08T16:41:30.917Z,98885.06
2023-03-08T16:44:00.584Z,98891.53
2023-03-08T16:46:29.221Z,98893.16
2023-03-08T16:48:57.416Z,98895.03
2023-03-08T16:51:26.441Z,98904.19
2023-03-08T16:53:54.501Z,98904.19
2023-03-08T16:56:23.773Z,98905.25
2023-03-08T16:58:51.815Z,98906.06
2023-03-08T17:01:21.195Z,98905.03
2023-03-08T17:03:49.277Z,98910.97
2023-03-08T17:06:18.063Z,98909.09
2023-03-08T17:08:46.092Z,98914.25
2023-03-08T17:11:17.530Z,98912.09
2023-03-08T17:13:47.788Z,98918.56
2023-03-08T17:16:15.747Z,98921.81
2023-03-08T17:18:45.196Z,98919.13
2023-03-08T17:21:13.190Z,98926.19
2023-03-08T17:23:41.245Z,98933.19
2023-03-08T17:26:10.142Z,98932.69
2023-03-08T17:28:38.505Z,98931.63
2023-03-08T17:31:08.803Z,98943.50
2023-03-08T17:33:36.911Z,98957.56
2023-03-08T17:36:06.538Z,98969.97
2023-03-08T17:38:34.652Z,98970.81
2023-03-08T17:41:05.388Z,98974.06
2023-03-08T17:43:33.417Z,98984.63
2023-03-08T17:46:02.016Z,98974.69
2023-03-08T17:48:30.909Z,98974.69
2023-03-08T17:51:02.863Z,98987.13
2023-03-08T17:53:32.401Z,98985.00
2023-03-08T17:56:01.899Z,98986.94
2023-03-08T17:58:29.979Z,98990.22
2023-03-08T18:00:58.088Z,98995.63
2023-03-08T18:03:26.234Z,98996.44
2023-03-08T18:05:54.258Z,98993.16
2023-03-08T18:08:22.275Z,99000.44
2023-03-08T18:10:51.593Z,98993.44
2023-03-08T18:13:19.622Z,98993.44
2023-03-08T18:15:47.804Z,98987.47
2023-03-08T18:18:17.609Z,98985.81
2023-03-08T18:20:45.534Z,98996.59
2023-03-08T18:23:14.163Z,98996.59
2023-03-08T18:25:42.137Z,99002.50
2023-03-08T18:28:12.054Z,98992.44
2023-03-08T18:30:39.926Z,98992.44
2023-03-08T18:33:07.824Z,98991.78
2023-03-08T18:35:35.758Z,98994.13
2023-03-08T18:38:03.709Z,98995.72
2023-03-08T18:40:31.631Z,98994.56
2023-03-08T18:42:59.663Z,98995.06
2023-03-08T18:45:29.052Z,98999.25
2023-03-08T18:47:57.067Z,99005.53
2023-03-08T18:50:25.159Z,99008.97
2023-03-08T18:52:53.207Z,99007.03
2023-03-08T18:55:21.218Z,99010.78
2023-03-08T18:57:49.226Z,98999.41
2023-03-08T19:04:10.149Z,98984.47
2023-03-08T19:06:38.146Z,98993.28
2023-03-08T19:09:10.205Z,98992.16
2023-03-08T19:11:38.218Z,98993.97
2023-03-08T19:14:06.394Z,98997.38
2023-03-08T19:17:24.219Z,98995.09
2023-03-08T19:19:53.514Z,98981.53
2023-03-08T19:22:21.439Z,98988.72
2023-03-08T19:24:49.421Z,98984.25
2023-03-08T19:27:17.321Z,98980.66
2023-03-08T19:29:45.335Z,98972.47
2023-03-08T19:32:16.042Z,98976.72
2023-03-08T19:34:44.833Z,98975.34
2023-03-08T19:37:15.114Z,98982.25
2023-03-08T19:39:43.892Z,98980.84
2023-03-08T19:42:13.349Z,98977.34
2023-03-08T19:44:41.368Z,98988.59
2023-03-08T19:47:09.977Z,98983.44
2023-03-08T19:49:38.739Z,98998.81
2023-03-08T19:52:07.324Z,98993.19
2023-03-08T19:54:36.710Z,98993.69
2023-03-08T19:57:04.759Z,99001.75
2023-03-08T19:59:32.731Z,98999.88
2023-03-08T20:02:00.668Z,99004.78
2023-03-08T20:04:29.410Z,99002.78
2023-03-08T20:07:00.084Z,98994.13
2023-03-08T20:09:28.146Z,98998.72
2023-03-08T20:11:59.058Z,98997.41
2023-03-08T20:14:27.923Z,99002.31
2023-03-08T20:16:56.100Z,99006.06
2023-03-08T20:19:24.253Z,98988.59
2023-03-08T20:21:52.208Z,98991.88
2023-03-08T20:24:20.755Z,98991.03
2023-03-08T20:26:48.818Z,99002.66
2023-03-08T20:29:18.506Z,98992.69
2023-03-08T20:31:48.209Z,98998.91
2023-03-08T20:34:16.213Z,98988.44
2023-03-08T20:36:44.333Z,98993.38
2023-03-08T20:39:12.374Z,98994.19
2023-03-08T20:41:40.312Z,98996.63
2023-03-08T20:44:08.233Z,98997.69
2023-03-08T20:46:37.682Z,98995.81
2023-03-08T20:49:05.592Z,98996.63
2023-03-08T20:51:33.601Z,98996.97
2023-03-08T20:54:01.585Z,98997.78
2023-03-08T20:56:29.555Z,99005.88
2023-03-08T20:58:57.682Z,98999.19
2023-03-08T21:01:26.882Z,99004.31
2023-03-08T21:03:56.317Z,99001.38
2023-03-08T21:06:25.773Z,98999.03
2023-03-08T21:08:53.745Z,98997.97
2023-03-08T21:11:21.811Z,99001.25
2023-03-08T21:13:49.897Z,98994.81
2023-03-08T21:16:18.713Z,98997.03
2023-03-08T21:18:50.086Z,98997.59
2023-03-08T21:21:24.100Z,98995.50
2023-03-08T21:23:54.592Z,98990.66
2023-03-08T21:26:23.650Z,98986.66
2023-03-08T21:28:52.753Z,98989.13
2023-03-08T21:31:21.111Z,98986.75
2023-03-08T21:33:49.186Z,98984.84
2023-03-08T21:36:17.235Z,98979.00
2023-03-08T21:41:18.651Z,98981.19
2023-03-08T21:43:46.721Z,98982.00
2023-03-08T21:46:14.890Z,98979.09
2023-03-08T21:48:42.893Z,98987.72
2023-03-08T21:51:10.997Z,98986.91
2023-03-08T21:53:39.085Z,98986.69
2023-03-08T21:56:09.313Z,98991.00
2023-03-08T21:58:37.312Z,98982.69
2023-03-08T22:01:05.500Z,98985.91
2023-03-08T22:03:33.632Z,98983.22
2023-03-08T22:06:01.787Z,98983.00
2023-03-08T22:08:32.620Z,98981.09
2023-03-08T22:11:00.557Z,98983.00
2023-03-08T22:13:29.986Z,98983.81
2023-03-08T22:16:16.310Z,98986.28
2023-03-08T22:18:45.606Z,98987.06
2023-03-08T22:21:13.685Z,98987.06
2023-03-08T22:23:44.686Z,98979.81
2023-03-08T22:26:14.362Z,98975.22
2023-03-08T22:28:44.753Z,98973.38
2023-03-08T22:31:15.656Z,98967.97
2023-03-08T22:33:46.290Z,98974.97
2023-03-08T22:36:16.111Z,98973.38
2023-03-08T22:38:45.075Z,98974.75
2023-03-08T22:41:16.071Z,98973.91
2023-03-08T22:43:47.719Z,98968.28
2023-03-08T22:46:18.639Z,98972.59
2023-03-08T22:48:48.429Z,98970.75
2023-03-08T22:51:16.929Z,98970.47
2023-03-08T22:53:48.370Z,98975.06
2023-03-08T22:56:19.699Z,98972.13
2023-03-08T22:58:50.093Z,98977.53
2023-03-08T23:01:20.206Z,98972.13
2023-03-08T23:03:50.207Z,98972.69
2023-03-08T23:06:19.730Z,98978.06
2023-03-08T23:08:48.986Z,98976.47
2023-03-08T23:11:20.252Z,98977.25
2023-03-08T23:13:56.085Z,98971.88
2023-03-08T23:16:25.273Z,98971.88
2023-03-08T23:18:54.728Z,98972.94
2023-03-08T23:21:24.833Z,98975.66
2023-03-08T23:23:52.785Z,98975.66
2023-03-08T23:26:30.290Z,98975.66
2023-03-08T23:29:03.263Z,98975.66
2023-03-08T23:31:33.810Z,98968.59
2023-03-08T23:34:03.153Z,98975.06
2023-03-08T23:36:33.002Z,98978.56
2023-03-08T23:39:04.037Z,98975.66
2023-03-08T23:41:33.407Z,98971.06
2023-03-08T23:44:04.452Z,98965.66
2023-03-08T23:46:33.879Z,98965.91
2023-03-08T23:49:03.234Z,98967.28
2023-03-08T23:51:33.686Z,98962.69
2023-03-08T23:54:03.136Z,98957.56
2023-03-08T23:56:37.967Z,98960.28
2023-03-08T23:59:12.738Z,98950.28
